Time;durP1;ratioP1;P1;durP2;ratioP2;P2;SDS_P1;SDS_P2;PMS_P1;PMS_P2;Temp;Humidity;BMP_temperature;BMP_pressure;BME280_temperature;BME280_humidity;BME280_pressure;Samples;Min_cycle;Max_cycle;Signal;HPM_P1;HPM_P2
2021/05/17 00:02:28;;;;;;;4.97;3.92;;;10.70;99.90;;;;;;5101341;28;20058;-93
2021/05/17 00:04:54;;;;;;;7.40;3.90;;;10.70;99.90;;;;;;5082402;28;20040;-93
2021/05/17 00:10:42;;;;;;;6.15;4.22;;;10.60;99.90;;;;;;5106776;28;20051;-94
2021/05/17 00:13:08;;;;;;;5.50;3.60;;;10.60;99.90;;;;;;5089244;28;20058;-93
2021/05/17 00:15:34;;;;;;;5.00;3.15;;;10.60;99.90;;;;;;5081678;28;20032;-94
2021/05/17 00:18:37;;;;;;;6.65;3.30;;;10.50;99.90;;;;;;5072779;28;20036;-92
2021/05/17 00:21:04;;;;;;;5.37;3.80;;;10.60;99.90;;;;;;5092809;28;20035;-93
2021/05/17 00:23:30;;;;;;;8.20;4.30;;;10.50;99.90;;;;;;5067620;28;20484;-94
2021/05/17 00:26:15;;;;;;;5.95;3.83;;;10.50;99.90;;;;;;5106400;28;20510;-93
2021/05/17 00:28:59;;;;;;;8.05;4.75;;;10.50;99.90;;;;;;5091538;28;20028;-93
2021/05/17 00:31:26;;;;;;;6.50;3.75;;;10.50;99.90;;;;;;5088122;28;20485;-93
2021/05/17 00:36:55;;;;;;;7.55;4.55;;;10.40;99.90;;;;;;5103652;28;20117;-93
2021/05/17 00:39:41;;;;;;;8.70;4.68;;;10.40;99.90;;;;;;5081372;28;20373;-93
2021/05/17 00:44:55;;;;;;;8.38;4.63;;;10.40;99.90;;;;;;5096057;28;20079;-94
2021/05/17 00:47:41;;;;;;;9.23;5.43;;;10.30;99.90;;;;;;5078028;28;20056;-93
2021/05/17 00:50:09;;;;;;;8.65;5.30;;;10.40;99.90;;;;;;5078974;28;20042;-93
2021/05/17 00:53:13;;;;;;;10.65;6.57;;;10.40;99.90;;;;;;5096685;28;20112;-94
2021/05/17 00:55:58;;;;;;;11.80;6.85;;;10.40;99.90;;;;;;5078610;28;20433;-93
2021/05/17 01:01:49;;;;;;;9.02;5.97;;;10.40;99.90;;;;;;5084359;28;20043;-92
2021/05/17 01:04:33;;;;;;;10.02;5.72;;;10.30;99.90;;;;;;5078339;28;20044;-92
2021/05/17 01:07:01;;;;;;;8.05;6.45;;;10.30;99.90;;;;;;5096037;28;20036;-92
2021/05/17 01:09:57;;;;;;;10.20;6.65;;;10.30;99.90;;;;;;5062524;28;20040;-91
2021/05/17 01:12:24;;;;;;;11.43;6.50;;;10.30;99.90;;;;;;5079050;28;20035;-93
2021/05/17 01:15:15;;;;;;;10.52;6.72;;;10.30;99.90;;;;;;5090599;28;20040;-92
2021/05/17 01:18:00;;;;;;;10.98;6.85;;;10.30;99.90;;;;;;5096691;28;20496;-92
2021/05/17 01:20:30;;;;;;;7.50;5.32;;;10.30;99.90;;;;;;5091233;28;20079;-93
2021/05/17 01:26:17;;;;;;;6.22;4.47;;;10.40;99.90;;;;;;5088285;28;20065;-93
2021/05/17 01:29:02;;;;;;;6.82;4.32;;;10.40;99.90;;;;;;5084040;28;20074;-93
2021/05/17 01:31:28;;;;;;;5.88;4.10;;;10.40;99.90;;;;;;5093087;28;20036;-94
2021/05/17 01:33:55;;;;;;;6.07;3.58;;;10.30;99.90;;;;;;5074378;28;20791;-94
2021/05/17 01:36:23;;;;;;;6.60;3.72;;;10.30;99.90;;;;;;5074269;28;20035;-94
2021/05/17 01:38:54;;;;;;;4.60;3.35;;;10.30;99.90;;;;;;5083681;28;20045;-93
2021/05/17 01:41:40;;;;;;;6.13;3.47;;;10.40;99.90;;;;;;5103019;28;20040;-92
2021/05/17 01:44:11;;;;;;;5.07;3.50;;;10.30;99.90;;;;;;5079130;28;20430;-94
2021/05/17 02:01:09;;;;;;;6.22;3.97;;;10.30;99.90;;;;;;5094781;28;20070;-93
2021/05/17 02:17:40;;;;;;;5.72;3.17;;;10.30;99.90;;;;;;5095012;28;20129;-95
2021/05/17 02:25:54;;;;;;;6.07;4.20;;;10.40;99.90;;;;;;5079870;28;20044;-93
2021/05/17 02:28:39;;;;;;;5.93;3.70;;;10.40;99.90;;;;;;5078135;28;20039;-93
2021/05/17 02:31:06;;;;;;;4.82;3.30;;;10.40;99.90;;;;;;5078662;28;20036;-94
2021/05/17 02:40:16;;;;;;;8.27;4.40;;;10.30;99.90;;;;;;5094907;28;20494;-94
2021/05/17 02:42:45;;;;;;;6.50;4.18;;;10.30;99.90;;;;;;5095080;28;20410;-94
2021/05/17 02:48:40;;;;;;;7.63;4.85;;;10.30;99.90;;;;;;5098851;28;20059;-93
2021/05/17 02:54:07;;;;;;;9.93;5.85;;;10.30;99.90;;;;;;5094439;28;20067;-94
2021/05/17 03:05:54;;;;;;;8.13;5.80;;;10.20;99.90;;;;;;5094393;28;20047;-94
2021/05/17 03:08:25;;;;;;;7.03;5.35;;;10.30;99.90;;;;;;5076052;28;20032;-94
2021/05/17 03:10:54;;;;;;;9.85;6.07;;;10.20;99.90;;;;;;5076052;28;20032;-93
2021/05/17 03:13:39;;;;;;;10.02;5.93;;;10.30;99.90;;;;;;5076117;28;20529;-96
2021/05/17 03:16:26;;;;;;;8.55;6.18;;;10.30;99.90;;;;;;5075947;28;20048;-93
2021/05/17 03:18:54;;;;;;;8.13;5.75;;;10.30;99.90;;;;;;5076196;28;20441;-94
2021/05/17 03:24:10;;;;;;;7.68;5.40;;;10.30;99.90;;;;;;5085986;28;20055;-94
2021/05/17 03:26:55;;;;;;;8.40;5.97;;;10.30;99.90;;;;;;5081944;28;20040;-96
2021/05/17 03:29:39;;;;;;;10.65;7.65;;;10.30;99.90;;;;;;5082536;28;20058;-94
2021/05/17 03:32:05;;;;;;;8.85;5.95;;;10.30;99.90;;;;;;5082273;28;20024;-94
2021/05/17 03:37:52;;;;;;;7.00;5.10;;;10.30;99.90;;;;;;5100647;28;20422;-95
2021/05/17 03:40:19;;;;;;;7.75;4.70;;;10.40;99.90;;;;;;5082436;28;20032;-94
2021/05/17 03:42:45;;;;;;;7.03;4.90;;;10.30;99.90;;;;;;5082211;28;20044;-94
2021/05/17 03:51:37;;;;;;;8.88;5.18;;;10.30;99.90;;;;;;5105745;28;20453;-95
2021/05/17 03:54:03;;;;;;;7.38;4.97;;;10.30;99.90;;;;;;5102648;28;20043;-95
2021/05/17 03:56:47;;;;;;;10.30;6.55;;;10.30;99.90;;;;;;5086988;28;20032;-96
2021/05/17 04:02:19;;;;;;;9.88;5.55;;;10.30;99.90;;;;;;5102427;28;20063;-95
2021/05/17 04:13:52;;;;;;;8.32;4.85;;;10.30;99.90;;;;;;5038187;28;20037;-94
2021/05/17 04:22:24;;;;;;;12.52;6.22;;;10.30;99.90;;;;;;5103315;28;20055;-94
2021/05/17 04:24:50;;;;;;;9.23;5.65;;;10.30;99.90;;;;;;5086153;28;20044;-93
2021/05/17 04:27:41;;;;;;;8.98;5.65;;;10.30;99.90;;;;;;5092264;28;20086;-95
2021/05/17 04:30:33;;;;;;;9.85;5.35;;;10.40;99.90;;;;;;5120695;28;20054;-94
2021/05/17 04:33:02;;;;;;;11.38;6.00;;;10.50;99.90;;;;;;5063977;28;20048;-96
2021/05/17 04:35:28;;;;;;;12.10;6.00;;;10.50;99.90;;;;;;5072322;28;20079;-95
2021/05/17 04:38:12;;;;;;;7.18;4.72;;;10.50;99.90;;;;;;5075245;28;20068;-95
2021/05/17 04:43:24;;;;;;;10.35;5.72;;;10.50;99.90;;;;;;5098749;28;20063;-96
2021/05/17 04:45:56;;;;;;;11.55;5.35;;;10.50;99.90;;;;;;5092362;28;20028;-96
2021/05/17 04:48:24;;;;;;;9.25;6.15;;;10.50;99.90;;;;;;5070128;28;20479;-96
2021/05/17 04:53:33;;;;;;;8.30;5.35;;;10.50;99.90;;;;;;5083471;28;20178;-96
2021/05/17 04:55:59;;;;;;;8.45;4.78;;;10.50;99.90;;;;;;5082941;28;20028;-95
2021/05/17 05:01:29;;;;;;;7.40;4.80;;;10.50;99.90;;;;;;5096193;28;20042;-96
2021/05/17 05:04:34;;;;;;;8.70;4.43;;;10.50;99.90;;;;;;5090981;28;20040;-95
2021/05/17 05:07:00;;;;;;;7.50;5.20;;;10.50;99.90;;;;;;5098221;28;20594;-94
2021/05/17 05:12:31;;;;;;;8.25;5.15;;;10.60;99.90;;;;;;5094113;28;20440;-95
2021/05/17 05:21:22;;;;;;;7.93;4.45;;;10.60;99.90;;;;;;5093821;28;20380;-96
2021/05/17 05:24:07;;;;;;;6.43;4.40;;;10.70;99.90;;;;;;5060564;28;20032;-96
2021/05/17 05:33:07;;;;;;;7.20;4.78;;;10.70;99.90;;;;;;5084581;28;20066;-95
2021/05/17 05:41:17;;;;;;;5.88;3.83;;;10.70;99.90;;;;;;5101600;28;20098;-95
2021/05/17 05:43:45;;;;;;;7.20;4.32;;;10.70;99.90;;;;;;5062813;28;20086;-95
2021/05/17 05:52:38;;;;;;;5.72;4.80;;;10.70;99.90;;;;;;5074558;28;20107;-92
2021/05/17 05:55:06;;;;;;;6.60;4.53;;;10.70;99.90;;;;;;5047749;28;20045;-95
2021/05/17 05:57:51;;;;;;;7.10;4.70;;;10.60;99.90;;;;;;5030532;28;20144;-94
2021/05/17 06:03:41;;;;;;;6.57;4.53;;;10.70;99.90;;;;;;5073493;28;20075;-93
2021/05/17 06:06:11;;;;;;;8.30;5.75;;;10.70;99.90;;;;;;5039664;28;20056;-93
2021/05/17 06:08:40;;;;;;;8.25;5.47;;;10.70;99.90;;;;;;5013167;28;20044;-92
2021/05/17 06:11:44;;;;;;;10.95;5.88;;;10.70;99.90;;;;;;5087592;28;20059;-93
2021/05/17 06:19:43;;;;;;;8.93;5.82;;;10.90;99.90;;;;;;5095106;28;20088;-93
2021/05/17 06:22:48;;;;;;;11.05;6.20;;;10.90;99.90;;;;;;5077178;28;20032;-94
2021/05/17 06:25:16;;;;;;;9.90;5.40;;;10.90;99.90;;;;;;5076101;28;20052;-94
2021/05/17 06:28:05;;;;;;;11.88;6.47;;;11.00;99.90;;;;;;5075361;28;20098;-94
2021/05/17 06:31:15;;;;;;;10.65;7.07;;;11.00;99.90;;;;;;5072075;28;20067;-93
2021/05/17 06:34:01;;;;;;;12.15;6.60;;;11.00;99.90;;;;;;5086079;28;20436;-94
2021/05/17 06:36:30;;;;;;;8.85;6.18;;;11.00;99.90;;;;;;5071432;28;20043;-94
2021/05/17 06:39:18;;;;;;;9.95;6.22;;;11.00;99.90;;;;;;5059739;28;20318;-94
2021/05/17 06:41:47;;;;;;;12.25;7.07;;;11.00;99.90;;;;;;5075934;28;20036;-92
2021/05/17 06:47:36;;;;;;;12.13;7.75;;;11.10;99.90;;;;;;5094332;28;20054;-92
2021/05/17 06:50:21;;;;;;;11.15;6.57;;;11.10;99.90;;;;;;5076017;28;20473;-91
2021/05/17 06:53:06;;;;;;;9.98;6.32;;;11.20;99.90;;;;;;5092014;28;20052;-93
2021/05/17 06:55:38;;;;;;;13.05;7.60;;;11.20;99.90;;;;;;5091741;28;20093;-93
2021/05/17 06:58:27;;;;;;;9.50;6.90;;;11.30;99.90;;;;;;5074537;28;20036;-94
2021/05/17 07:01:14;;;;;;;12.50;7.10;;;11.30;99.90;;;;;;5074060;28;20036;-91
2021/05/17 07:03:41;;;;;;;12.20;6.68;;;11.40;99.90;;;;;;5071249;28;20051;-93
2021/05/17 07:06:29;;;;;;;9.70;6.93;;;11.50;99.90;;;;;;5056328;28;20048;-93
2021/05/17 07:12:09;;;;;;;6.65;5.53;;;11.60;99.90;;;;;;5077753;28;20108;-94
2021/05/17 07:14:37;;;;;;;10.35;5.90;;;11.60;99.90;;;;;;5076123;28;20098;-92
2021/05/17 07:17:03;;;;;;;11.32;5.93;;;11.80;99.90;;;;;;5060447;28;20039;-90
2021/05/17 07:19:44;;;;;;;8.98;5.97;;;11.80;99.90;;;;;;5072153;28;20415;-94
2021/05/17 07:25:19;;;;;;;11.00;5.60;;;11.80;99.90;;;;;;5089839;28;20051;-94
2021/05/17 07:28:06;;;;;;;8.68;5.05;;;11.80;99.90;;;;;;5053103;28;20521;-93
2021/05/17 07:30:33;;;;;;;7.60;4.75;;;11.80;99.90;;;;;;5075939;28;20032;-93
2021/05/17 07:35:44;;;;;;;9.75;5.38;;;11.90;99.90;;;;;;5076197;28;20519;-93
2021/05/17 07:38:23;;;;;;;9.45;5.85;;;11.90;99.90;;;;;;5055774;28;20127;-93
2021/05/17 07:43:55;;;;;;;8.40;6.28;;;11.80;99.90;;;;;;5077220;28;20113;-94
2021/05/17 07:49:14;;;;;;;11.10;7.05;;;11.80;99.90;;;;;;5076284;28;20043;-93
2021/05/17 07:52:03;;;;;;;8.98;6.95;;;11.80;99.90;;;;;;5074735;28;20074;-94
2021/05/17 07:54:48;;;;;;;9.73;7.88;;;11.80;99.90;;;;;;5058967;28;20040;-94
2021/05/17 07:57:14;;;;;;;10.30;7.28;;;11.90;99.90;;;;;;5067005;28;20094;-94
2021/05/17 08:00:18;;;;;;;10.45;7.60;;;12.00;99.90;;;;;;5089063;28;20040;-92
2021/05/17 08:05:34;;;;;;;10.57;5.70;;;12.10;99.90;;;;;;5064146;28;20139;-94
2021/05/17 08:08:19;;;;;;;10.25;5.53;;;12.20;99.90;;;;;;5077519;28;20468;-94
2021/05/17 08:10:47;;;;;;;7.82;5.00;;;12.20;99.90;;;;;;5081507;28;20040;-94
2021/05/17 08:13:32;;;;;;;8.65;4.85;;;12.30;99.90;;;;;;5080543;28;20040;-94
2021/05/17 08:16:00;;;;;;;6.00;3.75;;;12.50;99.90;;;;;;5066215;28;20038;-95
2021/05/17 08:19:07;;;;;;;13.38;5.63;;;12.70;99.90;;;;;;5080879;28;20132;-94
2021/05/17 08:21:34;;;;;;;9.18;5.07;;;13.00;99.90;;;;;;5085764;28;20036;-93
2021/05/17 08:26:49;;;;;;;7.38;4.45;;;13.20;99.90;;;;;;5086500;28;20039;-94
2021/05/17 08:29:15;;;;;;;9.98;4.57;;;13.20;99.90;;;;;;5082420;28;20032;-94
2021/05/17 08:31:43;;;;;;;6.95;4.00;;;13.30;99.90;;;;;;5080359;28;20504;-92
2021/05/17 08:34:10;;;;;;;7.53;4.22;;;13.30;99.90;;;;;;5080868;28;20051;-95
2021/05/17 08:37:01;;;;;;;6.50;4.20;;;13.30;99.90;;;;;;5063371;28;20036;-94
2021/05/17 08:39:31;;;;;;;6.20;4.10;;;13.30;99.90;;;;;;5077837;28;20032;-95
2021/05/17 08:42:15;;;;;;;5.30;3.10;;;13.30;99.90;;;;;;5080199;28;20027;-94
2021/05/17 08:44:43;;;;;;;6.70;3.47;;;13.10;99.90;;;;;;5080643;28;20047;-93
2021/05/17 08:50:18;;;;;;;4.88;2.90;;;13.20;99.90;;;;;;5085146;28;20035;-93
2021/05/17 08:53:03;;;;;;;5.75;3.10;;;13.40;99.90;;;;;;5090590;28;20126;-94
2021/05/17 09:01:04;;;;;;;7.15;3.03;;;13.50;99.90;;;;;;5103564;28;20071;-93
2021/05/17 09:03:32;;;;;;;5.85;3.08;;;13.60;99.90;;;;;;5099585;28;20074;-93
2021/05/17 09:11:47;;;;;;;7.05;3.97;;;14.30;99.90;;;;;;5096799;28;20051;-95
2021/05/17 09:17:09;;;;;;;6.82;3.60;;;14.30;99.90;;;;;;5094797;28;20113;-94
2021/05/17 09:19:55;;;;;;;8.13;4.28;;;14.20;99.90;;;;;;5095394;28;20028;-94
2021/05/17 09:22:42;;;;;;;5.85;3.75;;;14.30;99.90;;;;;;5079641;28;20073;-92
2021/05/17 09:28:25;;;;;;;5.20;3.55;;;14.70;99.90;;;;;;5084172;28;20412;-92
2021/05/17 09:31:15;;;;;;;6.05;3.38;;;14.60;99.90;;;;;;5087809;28;20119;-94
2021/05/17 09:34:19;;;;;;;7.60;3.75;;;14.30;99.90;;;;;;5089346;28;20098;-94
2021/05/17 09:37:03;;;;;;;6.03;3.45;;;14.00;99.90;;;;;;5084887;28;20381;-94
2021/05/17 09:39:55;;;;;;;7.50;3.33;;;13.80;99.90;;;;;;5072204;28;20467;-93
2021/05/17 09:42:43;;;;;;;5.85;2.95;;;13.80;99.90;;;;;;5083287;28;20035;-93
2021/05/17 09:45:13;;;;;;;6.10;2.63;;;14.10;99.90;;;;;;5081909;28;20052;-95
2021/05/17 09:53:55;;;;;;;7.05;3.35;;;15.30;99.90;;;;;;5057969;28;20147;-93
2021/05/17 09:56:23;;;;;;;5.00;3.63;;;15.70;99.90;;;;;;5037109;28;20036;-92
2021/05/17 09:59:02;;;;;;;5.93;3.20;;;15.70;99.90;;;;;;5054023;28;20093;-92
2021/05/17 10:01:34;;;;;;;4.18;2.47;;;15.70;99.90;;;;;;5037446;28;20032;-94
2021/05/17 10:04:29;;;;;;;4.22;2.72;;;15.50;99.90;;;;;;5054447;28;20045;-93
2021/05/17 10:07:23;;;;;;;4.65;3.10;;;15.70;99.90;;;;;;5054499;28;20124;-95
2021/05/17 10:10:10;;;;;;;4.90;2.55;;;16.20;99.90;;;;;;5052109;28;20067;-94
2021/05/17 10:12:37;;;;;;;3.78;2.67;;;16.40;99.90;;;;;;5038219;28;20068;-94
2021/05/17 10:15:48;;;;;;;4.78;3.05;;;16.50;99.90;;;;;;5060697;28;20040;-94
2021/05/17 10:18:34;;;;;;;6.75;3.10;;;16.20;99.90;;;;;;5053137;28;20037;-94
2021/05/17 10:21:17;;;;;;;5.80;2.63;;;15.90;99.90;;;;;;5062992;28;20044;-93
2021/05/17 10:30:02;;;;;;;6.45;3.10;;;15.50;99.90;;;;;;5066683;28;20027;-93
2021/05/17 10:35:52;;;;;;;5.25;2.40;;;15.10;99.90;;;;;;5073440;28;20032;-93
2021/05/17 10:38:41;;;;;;;6.72;2.75;;;14.90;99.90;;;;;;5055572;28;20036;-92
2021/05/17 10:41:50;;;;;;;5.78;2.55;;;14.70;99.90;;;;;;5056585;28;20058;-92
2021/05/17 10:47:44;;;;;;;4.82;2.83;;;14.00;99.90;;;;;;5036364;28;21133;-93
2021/05/17 10:50:41;;;;;;;3.80;2.40;;;13.60;99.90;;;;;;5018266;28;20038;-94
2021/05/17 10:53:45;;;;;;;3.58;2.60;;;13.60;99.90;;;;;;5049422;28;20044;-93
2021/05/17 10:56:30;;;;;;;4.05;2.05;;;13.60;99.90;;;;;;5063497;28;20048;-91
2021/05/17 11:05:31;;;;;;;5.55;2.90;;;15.30;99.90;;;;;;5075134;28;20039;-93
2021/05/17 11:08:22;;;;;;;5.80;3.90;;;16.20;99.90;;;;;;5068070;28;20058;-93
2021/05/17 11:14:20;;;;;;;4.78;2.60;;;16.50;99.90;;;;;;5073808;28;20048;-94
2021/05/17 11:17:32;;;;;;;3.53;2.53;;;16.20;99.90;;;;;;5057522;28;20047;-94
2021/05/17 11:23:12;;;;;;;4.07;2.05;;;16.80;99.90;;;;;;5049848;28;20106;-94
2021/05/17 11:26:10;;;;;;;3.10;1.85;;;16.90;99.90;;;;;;5074396;28;20045;-94
2021/05/17 11:31:44;;;;;;;3.88;2.20;;;16.50;99.90;;;;;;5073151;28;20047;-94
2021/05/17 11:37:20;;;;;;;3.30;2.15;;;16.30;99.90;;;;;;5069970;28;20068;-94
2021/05/17 11:40:23;;;;;;;2.88;1.65;;;16.20;99.90;;;;;;5031437;28;20146;-92
2021/05/17 11:42:58;;;;;;;2.45;1.67;;;16.30;99.90;;;;;;5051842;28;20039;-92
2021/05/17 11:45:49;;;;;;;4.07;1.90;;;16.20;99.90;;;;;;5077831;28;20048;-93
2021/05/17 11:48:15;;;;;;;4.32;1.92;;;16.20;99.90;;;;;;5076536;28;20049;-92
2021/05/17 11:51:19;;;;;;;5.32;3.22;;;16.90;99.90;;;;;;5047041;28;20036;-91
2021/05/17 11:53:55;;;;;;;4.63;2.80;;;17.70;99.90;;;;;;5059854;28;20044;-92
2021/05/17 11:56:47;;;;;;;5.07;3.30;;;17.90;99.90;;;;;;5060560;28;20408;-92
2021/05/17 11:59:54;;;;;;;;;;;;;;;;;;;;;
2021/05/17 12:02:54;;;;;;;3.33;2.50;;;19.10;99.90;;;;;;5070471;28;20038;-92
2021/05/17 12:05:54;;;;;;;;;;;;;;;;;;;;;
2021/05/17 12:09:00;;;;;;;3.58;2.50;;;19.50;99.90;;;;;;5076182;28;20379;-92
2021/05/17 12:11:34;;;;;;;4.25;2.95;;;18.90;99.90;;;;;;5075572;28;20040;-92
2021/05/17 12:14:19;;;;;;;3.17;2.40;;;18.50;99.90;;;;;;5081506;28;20101;-94
2021/05/17 12:17:03;;;;;;;4.50;2.83;;;18.00;99.90;;;;;;5080904;28;20055;-93
2021/05/17 12:19:51;;;;;;;4.82;3.33;;;17.50;99.90;;;;;;5059430;28;20052;-94
2021/05/17 12:28:39;;;;;;;4.85;4.15;;;16.00;99.90;;;;;;5073893;28;20132;-93
2021/05/17 12:36:41;;;;;;;4.30;3.90;;;16.40;99.90;;;;;;5078054;28;20027;-93
2021/05/17 12:39:26;;;;;;;5.05;4.10;;;16.70;99.90;;;;;;5059260;28;20166;-94
2021/05/17 12:42:14;;;;;;;5.70;4.53;;;16.80;99.90;;;;;;5052814;28;20039;-92
2021/05/17 12:53:35;;;;;;;6.63;4.82;;;17.00;99.90;;;;;;5077825;28;20051;-91
2021/05/17 12:56:07;;;;;;;5.68;5.03;;;16.80;99.90;;;;;;5057889;28;20032;-92
2021/05/17 12:58:44;;;;;;;5.60;4.53;;;16.40;99.90;;;;;;5061520;28;20037;-93
2021/05/17 13:01:24;;;;;;;5.35;4.32;;;16.20;99.90;;;;;;5071674;28;20021;-91
2021/05/17 13:03:55;;;;;;;6.05;4.80;;;16.10;99.90;;;;;;5034595;28;20179;-91
2021/05/17 13:06:50;;;;;;;5.60;3.95;;;16.00;99.90;;;;;;5054655;28;20129;-93
2021/05/17 13:09:20;;;;;;;4.78;3.83;;;15.90;99.90;;;;;;5045564;28;20060;-91
2021/05/17 13:12:24;;;;;;;4.10;2.53;;;15.90;99.90;;;;;;5065816;28;20183;-91
2021/05/17 13:15:18;;;;;;;3.25;2.47;;;16.00;99.90;;;;;;5045501;28;20082;-92
2021/05/17 13:21:32;;;;;;;2.28;1.85;;;16.00;99.90;;;;;;5068599;28;20393;-92
2021/05/17 13:36:27;;;;;;;2.97;1.90;;;16.90;99.90;;;;;;5068029;28;20045;-91
2021/05/17 13:39:17;;;;;;;2.88;1.77;;;17.10;99.90;;;;;;5054019;28;20143;-91
2021/05/17 13:41:43;;;;;;;2.97;2.05;;;17.40;99.90;;;;;;5053080;28;20037;-90
2021/05/17 13:44:16;;;;;;;2.65;1.63;;;18.10;99.90;;;;;;5070280;28;20047;-90
2021/05/17 13:47:07;;;;;;;2.90;2.00;;;18.80;99.90;;;;;;5072993;28;20043;-90
2021/05/17 13:49:58;;;;;;;2.67;1.60;;;19.50;99.90;;;;;;5067003;28;20410;-89
2021/05/17 13:52:44;;;;;;;2.08;1.58;;;19.30;99.90;;;;;;5075750;28;20056;-89
2021/05/17 13:55:31;;;;;;;2.28;1.90;;;19.10;99.90;;;;;;5077875;28;20068;-90
2021/05/17 14:00:46;;;;;;;2.72;2.20;;;18.30;99.90;;;;;;5077515;28;20044;-91
2021/05/17 14:03:32;;;;;;;6.82;4.40;;;17.80;99.90;;;;;;5061504;28;20043;-90
2021/05/17 14:06:18;;;;;;;5.05;4.18;;;17.10;99.90;;;;;;5072754;28;20032;-91
2021/05/17 14:09:06;;;;;;;6.07;4.82;;;16.40;99.90;;;;;;5081651;28;20032;-92
2021/05/17 14:11:32;;;;;;;6.72;5.45;;;15.80;99.90;;;;;;5069333;28;20059;-92
2021/05/17 14:17:05;;;;;;;7.75;6.72;;;15.00;99.90;;;;;;5087491;28;20093;-92
2021/05/17 14:19:40;;;;;;;6.55;5.40;;;14.60;99.90;;;;;;5080374;28;20392;-90
2021/05/17 14:22:10;;;;;;;5.90;4.68;;;14.40;99.90;;;;;;5061051;28;20062;-93
2021/05/17 14:24:38;;;;;;;8.45;5.93;;;14.10;99.90;;;;;;5061513;28;20036;-93
2021/05/17 14:27:03;;;;;;;10.10;6.13;;;14.00;99.90;;;;;;5063012;28;20066;-91
2021/05/17 14:32:36;;;;;;;8.52;6.25;;;13.70;99.90;;;;;;5088461;28;20391;-91
2021/05/17 14:35:28;;;;;;;9.60;6.80;;;13.70;99.90;;;;;;5077165;28;20030;-92
2021/05/17 14:46:26;;;;;;;10.90;8.10;;;14.60;99.90;;;;;;5095935;28;20039;-92
2021/05/17 14:48:52;;;;;;;11.68;8.90;;;14.70;99.90;;;;;;5103216;28;20053;-94
2021/05/17 14:51:18;;;;;;;11.60;9.05;;;14.60;99.90;;;;;;5071759;28;20122;-92
2021/05/17 14:53:44;;;;;;;9.73;7.35;;;14.50;99.90;;;;;;5072731;28;20059;-92
2021/05/17 14:56:11;;;;;;;10.43;7.95;;;14.50;99.90;;;;;;5071621;28;20083;-93
2021/05/17 14:58:39;;;;;;;10.50;7.00;;;14.40;99.90;;;;;;5083279;28;20024;-93
2021/05/17 15:01:24;;;;;;;8.52;7.57;;;14.40;99.90;;;;;;5089204;28;20404;-92
2021/05/17 15:04:27;;;;;;;8.10;7.30;;;14.40;99.90;;;;;;5055734;28;20044;-94
2021/05/17 15:06:54;;;;;;;9.00;7.43;;;14.50;99.90;;;;;;5072122;28;20147;-93
2021/05/17 15:09:23;;;;;;;9.02;7.57;;;14.60;99.90;;;;;;5040429;28;20052;-91
2021/05/17 15:11:49;;;;;;;10.70;7.97;;;14.60;99.90;;;;;;5092351;28;20403;-93
2021/05/17 15:14:37;;;;;;;10.77;8.27;;;14.50;99.90;;;;;;5070566;28;20040;-93
2021/05/17 15:17:21;;;;;;;11.32;9.13;;;14.50;99.90;;;;;;5074689;28;20028;-94
2021/05/17 15:22:51;;;;;;;10.02;9.00;;;14.20;99.90;;;;;;5089092;28;20161;-93
2021/05/17 15:25:35;;;;;;;10.43;7.82;;;13.90;99.90;;;;;;5076210;28;20403;-94
2021/05/17 15:28:20;;;;;;;8.48;7.40;;;13.80;99.90;;;;;;5091716;28;20036;-95
2021/05/17 15:31:05;;;;;;;9.85;7.70;;;13.70;99.90;;;;;;5090558;28;20028;-96
2021/05/17 15:33:51;;;;;;;9.25;7.28;;;13.60;99.90;;;;;;5089008;28;20047;-95
2021/05/17 15:36:17;;;;;;;9.10;7.70;;;13.60;99.90;;;;;;5069147;28;20476;-94
2021/05/17 15:42:05;;;;;;;8.90;6.78;;;13.40;99.90;;;;;;5087139;28;20102;-93
2021/05/17 15:44:30;;;;;;;8.57;6.70;;;13.50;99.90;;;;;;5082041;28;20050;-91
2021/05/17 15:50:27;;;;;;;8.80;6.82;;;13.60;99.90;;;;;;5088377;28;20439;-91
2021/05/17 15:52:53;;;;;;;9.02;7.60;;;13.70;99.90;;;;;;5053968;28;20442;-92
2021/05/17 15:58:40;;;;;;;10.52;7.90;;;13.70;99.90;;;;;;5087314;28;20089;-92
2021/05/17 16:03:56;;;;;;;10.77;8.68;;;13.80;99.90;;;;;;5091796;28;20055;-90
2021/05/17 16:06:21;;;;;;;8.32;6.97;;;13.80;99.90;;;;;;5081321;28;20063;-90
2021/05/17 16:12:13;;;;;;;7.13;5.45;;;14.00;99.90;;;;;;5087355;28;20071;-91
2021/05/17 16:14:46;;;;;;;7.47;5.20;;;14.20;99.90;;;;;;5085966;28;20106;-93
2021/05/17 16:26:27;;;;;;;6.22;4.00;;;13.80;99.90;;;;;;5087621;28;20047;-93
2021/05/17 16:28:54;;;;;;;5.15;3.50;;;13.80;99.90;;;;;;5039544;28;20072;-93
2021/05/17 16:31:32;;;;;;;4.65;3.65;;;13.70;99.90;;;;;;5059654;28;20058;-93
2021/05/17 16:39:46;;;;;;;8.30;4.53;;;13.80;99.90;;;;;;5090907;28;20374;-93
2021/05/17 16:42:30;;;;;;;6.18;4.28;;;13.90;99.90;;;;;;5074382;28;20040;-91
2021/05/17 16:44:57;;;;;;;5.43;3.90;;;14.10;99.90;;;;;;5090792;28;20040;-94
2021/05/17 16:51:03;;;;;;;5.57;3.72;;;14.30;99.90;;;;;;5074084;28;20148;-91
2021/05/17 16:53:30;;;;;;;5.88;3.63;;;14.20;99.90;;;;;;5092578;28;20506;-92
2021/05/17 16:56:16;;;;;;;6.00;3.45;;;14.20;99.90;;;;;;5073219;28;20472;-92
2021/05/17 16:59:00;;;;;;;6.13;2.95;;;14.20;99.90;;;;;;5071520;28;20323;-91
2021/05/17 17:04:13;;;;;;;4.85;2.63;;;14.10;99.90;;;;;;5077032;28;20495;-92
2021/05/17 17:06:42;;;;;;;6.13;2.70;;;14.20;99.90;;;;;;5069413;28;20032;-91
2021/05/17 17:09:14;;;;;;;6.75;3.10;;;14.20;99.90;;;;;;5072597;28;20059;-91
2021/05/17 17:12:20;;;;;;;5.43;3.47;;;14.30;99.90;;;;;;5055153;28;20032;-90
2021/05/17 17:15:05;;;;;;;5.25;2.90;;;14.20;99.90;;;;;;5070366;28;20542;-91
2021/05/17 17:17:36;;;;;;;7.60;3.72;;;14.10;99.90;;;;;;5089201;28;20096;-90
2021/05/17 17:20:06;;;;;;;7.90;4.47;;;14.00;99.90;;;;;;5052223;28;20399;-91
2021/05/17 17:22:37;;;;;;;6.47;3.85;;;14.00;99.90;;;;;;5088116;28;20569;-91
2021/05/17 17:28:09;;;;;;;4.78;2.97;;;14.00;99.90;;;;;;5088526;28;20046;-91
2021/05/17 17:30:53;;;;;;;6.07;3.20;;;13.80;99.90;;;;;;5070604;28;20044;-91
2021/05/17 17:42:34;;;;;;;6.13;3.00;;;13.80;99.90;;;;;;5084922;28;20109;-90
2021/05/17 17:45:00;;;;;;;5.40;3.10;;;13.80;99.90;;;;;;5056541;28;20450;-91
2021/05/17 17:56:17;;;;;;;5.70;2.40;;;13.90;99.90;;;;;;5088544;28;20533;-89
2021/05/17 17:59:04;;;;;;;5.95;2.05;;;13.70;99.90;;;;;;5087067;28;20447;-92
2021/05/17 18:04:35;;;;;;;3.93;2.10;;;13.60;99.90;;;;;;5089901;28;20047;-91
2021/05/17 18:07:04;;;;;;;3.10;1.98;;;13.50;99.90;;;;;;5071161;28;20294;-92
2021/05/17 18:09:35;;;;;;;5.20;2.10;;;13.40;99.90;;;;;;5077952;28;20122;-91
2021/05/17 18:12:18;;;;;;;4.82;1.60;;;13.30;99.90;;;;;;5072098;28;20036;-92
2021/05/17 18:18:01;;;;;;;3.05;1.58;;;13.20;99.90;;;;;;5089361;28;20039;-92
2021/05/17 18:20:28;;;;;;;4.60;1.75;;;13.20;99.90;;;;;;5076759;28;20690;-90
2021/05/17 18:22:55;;;;;;;7.10;2.03;;;13.30;99.90;;;;;;5070166;28;20043;-89
2021/05/17 18:28:06;;;;;;;7.03;1.63;;;13.20;99.90;;;;;;5089110;28;20541;-91
2021/05/17 18:31:13;;;;;;;5.13;1.58;;;13.20;99.90;;;;;;5069452;28;20029;-89
2021/05/17 18:36:32;;;;;;;5.38;1.58;;;13.20;99.90;;;;;;5090200;28;20043;-90
2021/05/17 18:42:04;;;;;;;4.37;1.60;;;13.10;99.90;;;;;;5089571;28;20050;-92
2021/05/17 18:53:50;;;;;;;4.80;1.40;;;13.00;99.90;;;;;;5088456;28;20116;-93
2021/05/17 18:56:27;;;;;;;4.43;1.50;;;13.00;99.90;;;;;;5076172;28;20066;-92
2021/05/17 18:59:04;;;;;;;3.85;1.48;;;12.90;99.90;;;;;;5052366;28;20455;-93
2021/05/17 19:01:31;;;;;;;5.15;1.73;;;12.80;99.90;;;;;;5050196;28;20526;-93
2021/05/17 19:07:25;;;;;;;5.65;1.60;;;12.70;99.90;;;;;;5065472;28;20039;-92
2021/05/17 19:12:35;;;;;;;4.22;1.80;;;12.60;99.90;;;;;;5093889;28;20055;-92
2021/05/17 19:17:48;;;;;;;4.35;1.52;;;12.50;99.90;;;;;;5084457;28;20359;-92
2021/05/17 19:23:31;;;;;;;5.18;2.35;;;12.40;99.90;;;;;;5091445;28;20546;-91
2021/05/17 19:26:00;;;;;;;6.85;2.65;;;12.30;99.90;;;;;;5091440;28;20051;-92
2021/05/17 19:28:35;;;;;;;7.72;2.60;;;12.30;99.90;;;;;;5092603;28;20031;-91
2021/05/17 19:31:20;;;;;;;6.00;2.40;;;12.20;99.90;;;;;;5045420;28;20055;-93
2021/05/17 19:33:52;;;;;;;7.78;2.20;;;12.10;99.90;;;;;;5081783;28;20587;-95
2021/05/17 19:36:36;;;;;;;6.18;2.45;;;12.10;99.90;;;;;;5084234;28;20062;-91
2021/05/17 19:41:51;;;;;;;6.63;2.80;;;11.90;99.90;;;;;;5078421;28;20067;-93
2021/05/17 19:44:22;;;;;;;5.75;2.45;;;11.80;99.90;;;;;;5043421;28;20051;-91
2021/05/17 19:49:34;;;;;;;5.20;3.03;;;11.70;99.90;;;;;;5081045;28;20123;-92
2021/05/17 19:52:00;;;;;;;6.38;2.75;;;11.60;99.90;;;;;;5097183;28;20171;-92
2021/05/17 19:57:11;;;;;;;6.63;2.13;;;11.50;99.90;;;;;;5065717;28;20119;-92
2021/05/17 19:59:56;;;;;;;7.18;2.63;;;11.50;99.90;;;;;;5075602;28;20106;-92
2021/05/17 20:03:01;;;;;;;6.75;2.42;;;11.40;99.90;;;;;;5074968;28;20063;-92
2021/05/17 20:05:45;;;;;;;5.53;2.58;;;11.40;99.90;;;;;;5101270;28;20034;-92
2021/05/17 20:14:03;;;;;;;6.63;2.30;;;11.30;99.90;;;;;;5098163;28;20093;-92
2021/05/17 20:16:51;;;;;;;6.90;2.83;;;11.30;99.90;;;;;;5088482;28;20036;-93